Terminal Aerodrome Forecast
Issued by NWS Cleveland, OH

Home | Current Version | Previous Version | Graphics & Text | Print | Product List | Glossary Off
Versions: 1 2 3 4 5 6 7 8 9 10 11 12 13 14 15

000
FTUS41 KCLE 282300
TAFYNG
TAF
KYNG 282327Z 2900/2924 25012KT P6SM BKN035 OVC100
     FM290200 26008KT P6SM SCT030 OVC200
     FM291500 25010G18KT P6SM BKN030
     FM291900 27010G18KT P6SM OVC035=

USA.gov is the U.S. government's official web portal to all federal, state and local government web resources and services.